Aviation Digital Data Service (ADDS)

Output produced by METARs form (1057 UTC 17 June 2019)
found at http://www.aviationweather.gov/metar/data/
 
Forecast for: ZPPP (KUNMING/WUJIABA , CN)
Text: TAF ZPPP 170709Z 1712/1812 22006MPS 9999 SCT020 BKN040 TX28/1808Z TN17/1723Z
Forecast period: 1200 UTC 17 June 2019 to 1200 UTC 18 June 2019
Forecast type: FROM: standard forecast or significant change
Winds: from the SW (220 degrees) at 14 MPH (12 knots; 6.2 m/s)
Visibility: 6 or more miles 10+ km)
Ceiling: 4000 feet AGL
Clouds: scattered clouds at 2000 feet AGL
broken clouds at 4000 feet AGL
Weather: no significant weather forecast for this period